sensor_id;sensor_type;location;lat;lon;timestamp;P1;durP1;ratioP1;P2;durP2;ratioP2
52025;SDS011;38041;40.058;18.328;2023-02-26T00:01:36;53.70;;;10.43;;
52025;SDS011;38041;40.058;18.328;2023-02-26T00:04:03;47.73;;;9.90;;
52025;SDS011;38041;40.058;18.328;2023-02-26T00:06:32;43.40;;;9.33;;
52025;SDS011;38041;40.058;18.328;2023-02-26T00:09:01;36.43;;;8.90;;
52025;SDS011;38041;40.058;18.328;2023-02-26T00:11:29;47.80;;;8.70;;
52025;SDS011;38041;40.058;18.328;2023-02-26T00:13:57;41.97;;;9.77;;
52025;SDS011;38041;40.058;18.328;2023-02-26T00:16:29;47.27;;;10.50;;
52025;SDS011;38041;40.058;18.328;2023-02-26T00:18:58;42.63;;;8.63;;
52025;SDS011;38041;40.058;18.328;2023-02-26T00:21:27;58.87;;;10.20;;
52025;SDS011;38041;40.058;18.328;2023-02-26T00:23:55;45.00;;;11.23;;
52025;SDS011;38041;40.058;18.328;2023-02-26T00:26:24;45.03;;;9.10;;
52025;SDS011;38041;40.058;18.328;2023-02-26T00:28:53;46.67;;;8.10;;
52025;SDS011;38041;40.058;18.328;2023-02-26T00:31:21;50.30;;;9.07;;
52025;SDS011;38041;40.058;18.328;2023-02-26T00:33:53;44.73;;;9.53;;
52025;SDS011;38041;40.058;18.328;2023-02-26T00:36:28;41.90;;;8.47;;
52025;SDS011;38041;40.058;18.328;2023-02-26T00:39:06;42.03;;;8.53;;
52025;SDS011;38041;40.058;18.328;2023-02-26T00:41:36;35.63;;;8.47;;
52025;SDS011;38041;40.058;18.328;2023-02-26T00:44:05;42.37;;;8.50;;
52025;SDS011;38041;40.058;18.328;2023-02-26T00:51:33;36.77;;;8.63;;
52025;SDS011;38041;40.058;18.328;2023-02-26T00:56:44;44.57;;;8.40;;
52025;SDS011;38041;40.058;18.328;2023-02-26T00:59:11;53.37;;;9.90;;
52025;SDS011;38041;40.058;18.328;2023-02-26T01:01:39;43.67;;;9.40;;
52025;SDS011;38041;40.058;18.328;2023-02-26T01:04:07;39.97;;;8.83;;
52025;SDS011;38041;40.058;18.328;2023-02-26T01:06:41;52.20;;;10.17;;
52025;SDS011;38041;40.058;18.328;2023-02-26T01:11:42;47.83;;;8.73;;
52025;SDS011;38041;40.058;18.328;2023-02-26T01:14:10;44.80;;;8.60;;
52025;SDS011;38041;40.058;18.328;2023-02-26T01:17:24;52.33;;;10.40;;
52025;SDS011;38041;40.058;18.328;2023-02-26T01:19:28;43.73;;;10.33;;
52025;SDS011;38041;40.058;18.328;2023-02-26T01:22:09;56.50;;;9.63;;
52025;SDS011;38041;40.058;18.328;2023-02-26T01:24:39;44.60;;;9.27;;
52025;SDS011;38041;40.058;18.328;2023-02-26T01:27:07;51.50;;;10.63;;
52025;SDS011;38041;40.058;18.328;2023-02-26T01:29:34;51.97;;;9.90;;
52025;SDS011;38041;40.058;18.328;2023-02-26T01:34:33;36.77;;;8.50;;
52025;SDS011;38041;40.058;18.328;2023-02-26T01:42:34;44.77;;;8.87;;
52025;SDS011;38041;40.058;18.328;2023-02-26T01:47:50;46.60;;;9.13;;
52025;SDS011;38041;40.058;18.328;2023-02-26T01:50:22;38.77;;;8.63;;
52025;SDS011;38041;40.058;18.328;2023-02-26T01:55:28;52.73;;;10.77;;
52025;SDS011;38041;40.058;18.328;2023-02-26T01:57:57;31.93;;;8.43;;
52025;SDS011;38041;40.058;18.328;2023-02-26T02:00:26;47.90;;;9.60;;
52025;SDS011;38041;40.058;18.328;2023-02-26T02:02:55;45.17;;;10.20;;
52025;SDS011;38041;40.058;18.328;2023-02-26T02:05:25;47.70;;;8.43;;
52025;SDS011;38041;40.058;18.328;2023-02-26T02:07:54;39.23;;;8.87;;
52025;SDS011;38041;40.058;18.328;2023-02-26T02:10:23;49.83;;;10.60;;
52025;SDS011;38041;40.058;18.328;2023-02-26T02:12:57;52.53;;;11.43;;
52025;SDS011;38041;40.058;18.328;2023-02-26T02:15:31;52.47;;;9.43;;
52025;SDS011;38041;40.058;18.328;2023-02-26T02:18:10;46.93;;;9.00;;
52025;SDS011;38041;40.058;18.328;2023-02-26T02:20:47;42.13;;;7.10;;
52025;SDS011;38041;40.058;18.328;2023-02-26T02:26:12;38.30;;;7.70;;
52025;SDS011;38041;40.058;18.328;2023-02-26T02:31:18;37.67;;;8.73;;
52025;SDS011;38041;40.058;18.328;2023-02-26T02:33:49;37.97;;;6.33;;
52025;SDS011;38041;40.058;18.328;2023-02-26T02:36:32;41.90;;;7.97;;
52025;SDS011;38041;40.058;18.328;2023-02-26T02:39:04;44.60;;;9.53;;
52025;SDS011;38041;40.058;18.328;2023-02-26T02:41:35;52.53;;;10.20;;
52025;SDS011;38041;40.058;18.328;2023-02-26T02:44:05;47.77;;;8.13;;
52025;SDS011;38041;40.058;18.328;2023-02-26T02:46:36;44.27;;;9.27;;
52025;SDS011;38041;40.058;18.328;2023-02-26T02:49:12;39.87;;;7.20;;
52025;SDS011;38041;40.058;18.328;2023-02-26T02:51:43;42.63;;;8.03;;
52025;SDS011;38041;40.058;18.328;2023-02-26T02:54:18;36.60;;;7.40;;
52025;SDS011;38041;40.058;18.328;2023-02-26T02:59:43;49.87;;;8.93;;
52025;SDS011;38041;40.058;18.328;2023-02-26T03:04:39;39.43;;;7.47;;
52025;SDS011;38041;40.058;18.328;2023-02-26T03:07:08;37.03;;;7.57;;
52025;SDS011;38041;40.058;18.328;2023-02-26T03:09:35;49.47;;;8.97;;
52025;SDS011;38041;40.058;18.328;2023-02-26T03:12:03;33.00;;;7.27;;
52025;SDS011;38041;40.058;18.328;2023-02-26T03:14:32;32.33;;;6.80;;
52025;SDS011;38041;40.058;18.328;2023-02-26T03:19:35;32.83;;;5.90;;
52025;SDS011;38041;40.058;18.328;2023-02-26T03:22:16;44.03;;;8.47;;
52025;SDS011;38041;40.058;18.328;2023-02-26T03:25:03;26.57;;;6.53;;
52025;SDS011;38041;40.058;18.328;2023-02-26T03:28:08;38.27;;;7.13;;
52025;SDS011;38041;40.058;18.328;2023-02-26T03:30:31;33.80;;;6.23;;
52025;SDS011;38041;40.058;18.328;2023-02-26T03:33:03;47.20;;;6.80;;
52025;SDS011;38041;40.058;18.328;2023-02-26T03:35:34;41.50;;;8.23;;
52025;SDS011;38041;40.058;18.328;2023-02-26T03:38:05;35.70;;;7.67;;
52025;SDS011;38041;40.058;18.328;2023-02-26T03:40:35;40.10;;;8.33;;
52025;SDS011;38041;40.058;18.328;2023-02-26T03:43:14;56.93;;;8.37;;
52025;SDS011;38041;40.058;18.328;2023-02-26T03:45:43;46.83;;;9.37;;
52025;SDS011;38041;40.058;18.328;2023-02-26T03:48:12;42.63;;;8.50;;
52025;SDS011;38041;40.058;18.328;2023-02-26T03:50:43;46.73;;;9.47;;
52025;SDS011;38041;40.058;18.328;2023-02-26T03:53:22;43.80;;;7.70;;
52025;SDS011;38041;40.058;18.328;2023-02-26T03:56:05;40.27;;;8.27;;
52025;SDS011;38041;40.058;18.328;2023-02-26T03:58:52;40.87;;;9.30;;
52025;SDS011;38041;40.058;18.328;2023-02-26T04:01:48;39.50;;;7.80;;
52025;SDS011;38041;40.058;18.328;2023-02-26T04:06:49;55.13;;;9.70;;
52025;SDS011;38041;40.058;18.328;2023-02-26T04:09:20;35.60;;;7.30;;
52025;SDS011;38041;40.058;18.328;2023-02-26T04:11:48;56.87;;;8.97;;
52025;SDS011;38041;40.058;18.328;2023-02-26T04:14:17;52.83;;;8.33;;
52025;SDS011;38041;40.058;18.328;2023-02-26T04:16:45;46.97;;;8.63;;
52025;SDS011;38041;40.058;18.328;2023-02-26T04:19:13;44.67;;;9.70;;
52025;SDS011;38041;40.058;18.328;2023-02-26T04:21:41;34.97;;;6.77;;
52025;SDS011;38041;40.058;18.328;2023-02-26T04:24:11;45.97;;;8.93;;
52025;SDS011;38041;40.058;18.328;2023-02-26T04:26:38;49.07;;;10.83;;
52025;SDS011;38041;40.058;18.328;2023-02-26T04:29:06;36.90;;;6.83;;
52025;SDS011;38041;40.058;18.328;2023-02-26T04:31:34;40.73;;;7.93;;
52025;SDS011;38041;40.058;18.328;2023-02-26T04:34:02;46.87;;;9.27;;
52025;SDS011;38041;40.058;18.328;2023-02-26T04:36:29;52.30;;;8.40;;
52025;SDS011;38041;40.058;18.328;2023-02-26T04:38:57;36.77;;;7.23;;
52025;SDS011;38041;40.058;18.328;2023-02-26T04:41:25;42.27;;;7.43;;
52025;SDS011;38041;40.058;18.328;2023-02-26T04:43:53;46.40;;;9.63;;
52025;SDS011;38041;40.058;18.328;2023-02-26T04:46:24;42.90;;;7.97;;
52025;SDS011;38041;40.058;18.328;2023-02-26T04:48:53;35.17;;;7.43;;
52025;SDS011;38041;40.058;18.328;2023-02-26T04:51:20;52.50;;;10.23;;
52025;SDS011;38041;40.058;18.328;2023-02-26T04:53:50;35.63;;;7.10;;
52025;SDS011;38041;40.058;18.328;2023-02-26T04:56:18;41.70;;;8.83;;
52025;SDS011;38041;40.058;18.328;2023-02-26T04:58:46;48.13;;;8.00;;
52025;SDS011;38041;40.058;18.328;2023-02-26T05:01:20;54.37;;;10.13;;
52025;SDS011;38041;40.058;18.328;2023-02-26T05:03:48;44.43;;;10.50;;
52025;SDS011;38041;40.058;18.328;2023-02-26T05:06:16;45.83;;;8.33;;
52025;SDS011;38041;40.058;18.328;2023-02-26T05:08:44;41.00;;;8.47;;
52025;SDS011;38041;40.058;18.328;2023-02-26T05:11:12;40.50;;;8.43;;
52025;SDS011;38041;40.058;18.328;2023-02-26T05:13:39;43.73;;;8.83;;
52025;SDS011;38041;40.058;18.328;2023-02-26T05:16:07;45.07;;;9.10;;
52025;SDS011;38041;40.058;18.328;2023-02-26T05:18:35;37.67;;;7.50;;
52025;SDS011;38041;40.058;18.328;2023-02-26T05:21:03;46.43;;;8.43;;
52025;SDS011;38041;40.058;18.328;2023-02-26T05:23:31;38.93;;;6.93;;
52025;SDS011;38041;40.058;18.328;2023-02-26T05:25:59;52.57;;;8.90;;
52025;SDS011;38041;40.058;18.328;2023-02-26T05:28:27;41.23;;;7.87;;
52025;SDS011;38041;40.058;18.328;2023-02-26T05:30:55;51.23;;;9.50;;
52025;SDS011;38041;40.058;18.328;2023-02-26T05:33:24;45.40;;;7.97;;
52025;SDS011;38041;40.058;18.328;2023-02-26T05:35:52;39.60;;;7.90;;
52025;SDS011;38041;40.058;18.328;2023-02-26T05:38:20;32.53;;;7.23;;
52025;SDS011;38041;40.058;18.328;2023-02-26T05:40:48;41.03;;;8.93;;
52025;SDS011;38041;40.058;18.328;2023-02-26T05:43:16;33.23;;;8.03;;
52025;SDS011;38041;40.058;18.328;2023-02-26T05:45:43;40.63;;;8.07;;
52025;SDS011;38041;40.058;18.328;2023-02-26T05:48:11;43.47;;;9.80;;
52025;SDS011;38041;40.058;18.328;2023-02-26T05:50:39;41.50;;;7.70;;
52025;SDS011;38041;40.058;18.328;2023-02-26T05:53:06;35.63;;;7.87;;
52025;SDS011;38041;40.058;18.328;2023-02-26T05:55:34;44.47;;;9.37;;
52025;SDS011;38041;40.058;18.328;2023-02-26T05:58:02;40.73;;;8.33;;
52025;SDS011;38041;40.058;18.328;2023-02-26T06:00:29;46.57;;;8.77;;
52025;SDS011;38041;40.058;18.328;2023-02-26T06:02:57;40.73;;;7.67;;
52025;SDS011;38041;40.058;18.328;2023-02-26T06:05:25;36.60;;;7.17;;
52025;SDS011;38041;40.058;18.328;2023-02-26T06:07:52;45.73;;;8.83;;
52025;SDS011;38041;40.058;18.328;2023-02-26T06:10:20;46.30;;;9.23;;
52025;SDS011;38041;40.058;18.328;2023-02-26T06:12:49;47.30;;;9.30;;
52025;SDS011;38041;40.058;18.328;2023-02-26T06:15:17;42.47;;;9.73;;
52025;SDS011;38041;40.058;18.328;2023-02-26T06:17:45;45.57;;;9.33;;
52025;SDS011;38041;40.058;18.328;2023-02-26T06:20:12;53.73;;;12.07;;
52025;SDS011;38041;40.058;18.328;2023-02-26T06:22:40;36.87;;;8.87;;
52025;SDS011;38041;40.058;18.328;2023-02-26T06:25:08;52.83;;;9.93;;
52025;SDS011;38041;40.058;18.328;2023-02-26T06:27:35;52.07;;;10.37;;
52025;SDS011;38041;40.058;18.328;2023-02-26T06:30:03;42.67;;;9.37;;
52025;SDS011;38041;40.058;18.328;2023-02-26T06:32:31;37.50;;;10.77;;
52025;SDS011;38041;40.058;18.328;2023-02-26T06:34:59;51.80;;;9.67;;
52025;SDS011;38041;40.058;18.328;2023-02-26T06:37:27;55.30;;;9.50;;
52025;SDS011;38041;40.058;18.328;2023-02-26T06:39:55;42.27;;;9.80;;
52025;SDS011;38041;40.058;18.328;2023-02-26T06:42:23;40.00;;;9.57;;
52025;SDS011;38041;40.058;18.328;2023-02-26T06:44:50;49.53;;;9.50;;
52025;SDS011;38041;40.058;18.328;2023-02-26T06:47:18;40.27;;;9.17;;
52025;SDS011;38041;40.058;18.328;2023-02-26T06:49:46;46.10;;;8.67;;
52025;SDS011;38041;40.058;18.328;2023-02-26T06:52:14;46.00;;;9.87;;
52025;SDS011;38041;40.058;18.328;2023-02-26T06:54:42;41.17;;;9.60;;
52025;SDS011;38041;40.058;18.328;2023-02-26T06:57:10;42.03;;;9.50;;
52025;SDS011;38041;40.058;18.328;2023-02-26T06:59:37;42.90;;;6.80;;
52025;SDS011;38041;40.058;18.328;2023-02-26T07:02:05;45.13;;;10.00;;
52025;SDS011;38041;40.058;18.328;2023-02-26T07:04:33;39.77;;;8.50;;
52025;SDS011;38041;40.058;18.328;2023-02-26T07:07:01;39.67;;;9.77;;
52025;SDS011;38041;40.058;18.328;2023-02-26T07:09:28;49.43;;;11.83;;
52025;SDS011;38041;40.058;18.328;2023-02-26T07:11:56;44.00;;;12.80;;
52025;SDS011;38041;40.058;18.328;2023-02-26T07:14:23;44.40;;;11.20;;
52025;SDS011;38041;40.058;18.328;2023-02-26T07:16:51;57.77;;;11.77;;
52025;SDS011;38041;40.058;18.328;2023-02-26T07:19:19;46.33;;;11.27;;
52025;SDS011;38041;40.058;18.328;2023-02-26T07:21:47;47.53;;;11.33;;
52025;SDS011;38041;40.058;18.328;2023-02-26T07:24:14;58.90;;;17.83;;
52025;SDS011;38041;40.058;18.328;2023-02-26T07:26:42;64.57;;;21.43;;
52025;SDS011;38041;40.058;18.328;2023-02-26T07:29:10;49.33;;;11.10;;
52025;SDS011;38041;40.058;18.328;2023-02-26T07:31:37;72.83;;;22.60;;
52025;SDS011;38041;40.058;18.328;2023-02-26T07:34:06;43.20;;;15.97;;
52025;SDS011;38041;40.058;18.328;2023-02-26T07:36:33;43.90;;;14.40;;
52025;SDS011;38041;40.058;18.328;2023-02-26T07:39:01;52.23;;;16.23;;
52025;SDS011;38041;40.058;18.328;2023-02-26T07:41:29;55.17;;;13.57;;
52025;SDS011;38041;40.058;18.328;2023-02-26T07:43:56;57.70;;;16.40;;
52025;SDS011;38041;40.058;18.328;2023-02-26T07:46:24;63.63;;;21.37;;
52025;SDS011;38041;40.058;18.328;2023-02-26T07:48:52;59.00;;;14.93;;
52025;SDS011;38041;40.058;18.328;2023-02-26T07:51:20;67.23;;;20.23;;
52025;SDS011;38041;40.058;18.328;2023-02-26T07:53:47;60.20;;;13.90;;
52025;SDS011;38041;40.058;18.328;2023-02-26T07:56:15;54.47;;;14.70;;
52025;SDS011;38041;40.058;18.328;2023-02-26T07:58:43;52.57;;;15.20;;
52025;SDS011;38041;40.058;18.328;2023-02-26T08:01:11;63.20;;;22.30;;
52025;SDS011;38041;40.058;18.328;2023-02-26T08:03:38;88.20;;;37.53;;
52025;SDS011;38041;40.058;18.328;2023-02-26T08:06:06;89.73;;;41.07;;
52025;SDS011;38041;40.058;18.328;2023-02-26T08:08:34;86.40;;;32.53;;
52025;SDS011;38041;40.058;18.328;2023-02-26T08:11:01;63.40;;;24.77;;
52025;SDS011;38041;40.058;18.328;2023-02-26T08:13:29;54.30;;;15.50;;
52025;SDS011;38041;40.058;18.328;2023-02-26T08:15:57;62.10;;;16.80;;
52025;SDS011;38041;40.058;18.328;2023-02-26T08:18:24;58.27;;;16.00;;
52025;SDS011;38041;40.058;18.328;2023-02-26T08:20:52;69.23;;;19.17;;
52025;SDS011;38041;40.058;18.328;2023-02-26T08:23:20;62.97;;;21.33;;
52025;SDS011;38041;40.058;18.328;2023-02-26T08:25:48;84.20;;;28.70;;
52025;SDS011;38041;40.058;18.328;2023-02-26T08:28:15;58.23;;;13.93;;
52025;SDS011;38041;40.058;18.328;2023-02-26T08:30:43;51.90;;;13.93;;
52025;SDS011;38041;40.058;18.328;2023-02-26T08:33:11;67.33;;;14.60;;
52025;SDS011;38041;40.058;18.328;2023-02-26T08:35:38;76.13;;;22.23;;
52025;SDS011;38041;40.058;18.328;2023-02-26T08:38:06;84.40;;;27.43;;
52025;SDS011;38041;40.058;18.328;2023-02-26T08:40:34;67.10;;;26.43;;
52025;SDS011;38041;40.058;18.328;2023-02-26T08:43:01;64.50;;;24.80;;
52025;SDS011;38041;40.058;18.328;2023-02-26T08:45:29;65.20;;;16.70;;
52025;SDS011;38041;40.058;18.328;2023-02-26T08:47:57;52.60;;;15.93;;
52025;SDS011;38041;40.058;18.328;2023-02-26T08:50:25;89.77;;;26.77;;
52025;SDS011;38041;40.058;18.328;2023-02-26T08:52:53;71.23;;;22.47;;
52025;SDS011;38041;40.058;18.328;2023-02-26T08:55:20;67.83;;;12.70;;
52025;SDS011;38041;40.058;18.328;2023-02-26T08:57:48;75.73;;;24.20;;
52025;SDS011;38041;40.058;18.328;2023-02-26T09:00:16;51.53;;;15.33;;
52025;SDS011;38041;40.058;18.328;2023-02-26T09:02:45;57.40;;;14.43;;
52025;SDS011;38041;40.058;18.328;2023-02-26T09:05:13;50.63;;;14.33;;
52025;SDS011;38041;40.058;18.328;2023-02-26T09:07:41;65.60;;;16.77;;
52025;SDS011;38041;40.058;18.328;2023-02-26T09:10:09;58.67;;;14.33;;
52025;SDS011;38041;40.058;18.328;2023-02-26T09:12:37;57.43;;;17.93;;
52025;SDS011;38041;40.058;18.328;2023-02-26T09:15:06;70.27;;;24.70;;
52025;SDS011;38041;40.058;18.328;2023-02-26T09:17:34;56.80;;;16.87;;
52025;SDS011;38041;40.058;18.328;2023-02-26T09:20:02;62.57;;;17.17;;
52025;SDS011;38041;40.058;18.328;2023-02-26T09:22:30;48.80;;;15.27;;
52025;SDS011;38041;40.058;18.328;2023-02-26T09:24:58;48.63;;;13.27;;
52025;SDS011;38041;40.058;18.328;2023-02-26T09:27:25;65.47;;;16.40;;
52025;SDS011;38041;40.058;18.328;2023-02-26T09:29:53;70.87;;;18.17;;
52025;SDS011;38041;40.058;18.328;2023-02-26T09:32:21;60.73;;;19.00;;
52025;SDS011;38041;40.058;18.328;2023-02-26T09:34:49;75.53;;;18.67;;
52025;SDS011;38041;40.058;18.328;2023-02-26T09:37:17;59.10;;;15.17;;
52025;SDS011;38041;40.058;18.328;2023-02-26T09:39:44;58.37;;;16.00;;
52025;SDS011;38041;40.058;18.328;2023-02-26T09:42:31;70.63;;;18.17;;
52025;SDS011;38041;40.058;18.328;2023-02-26T09:45:03;81.23;;;20.07;;
52025;SDS011;38041;40.058;18.328;2023-02-26T09:47:34;63.30;;;17.07;;
52025;SDS011;38041;40.058;18.328;2023-02-26T09:55:47;51.97;;;9.00;;
52025;SDS011;38041;40.058;18.328;2023-02-26T09:58:29;67.90;;;20.57;;
52025;SDS011;38041;40.058;18.328;2023-02-26T10:01:05;81.97;;;29.50;;
52025;SDS011;38041;40.058;18.328;2023-02-26T10:06:18;69.13;;;15.47;;
52025;SDS011;38041;40.058;18.328;2023-02-26T10:16:42;59.73;;;13.80;;
52025;SDS011;38041;40.058;18.328;2023-02-26T10:19:18;57.10;;;11.93;;
52025;SDS011;38041;40.058;18.328;2023-02-26T10:24:17;59.47;;;12.90;;
52025;SDS011;38041;40.058;18.328;2023-02-26T10:26:50;54.37;;;11.37;;
52025;SDS011;38041;40.058;18.328;2023-02-26T10:29:26;69.87;;;14.30;;
52025;SDS011;38041;40.058;18.328;2023-02-26T10:34:54;54.60;;;11.67;;
52025;SDS011;38041;40.058;18.328;2023-02-26T10:39:59;60.33;;;11.10;;
52025;SDS011;38041;40.058;18.328;2023-02-26T10:42:37;63.10;;;11.33;;
52025;SDS011;38041;40.058;18.328;2023-02-26T10:47:44;70.97;;;16.90;;
52025;SDS011;38041;40.058;18.328;2023-02-26T10:50:16;86.27;;;21.50;;
52025;SDS011;38041;40.058;18.328;2023-02-26T10:52:44;60.13;;;17.47;;
52025;SDS011;38041;40.058;18.328;2023-02-26T10:57:47;69.87;;;18.37;;
52025;SDS011;38041;40.058;18.328;2023-02-26T11:00:18;72.23;;;15.20;;
52025;SDS011;38041;40.058;18.328;2023-02-26T11:02:47;72.03;;;18.30;;
52025;SDS011;38041;40.058;18.328;2023-02-26T11:05:24;91.67;;;17.07;;
52025;SDS011;38041;40.058;18.328;2023-02-26T11:07:56;90.80;;;26.47;;
52025;SDS011;38041;40.058;18.328;2023-02-26T11:10:24;65.13;;;16.13;;
52025;SDS011;38041;40.058;18.328;2023-02-26T11:12:53;87.33;;;26.47;;
52025;SDS011;38041;40.058;18.328;2023-02-26T11:15:21;94.17;;;33.33;;
52025;SDS011;38041;40.058;18.328;2023-02-26T11:17:52;90.97;;;28.47;;
52025;SDS011;38041;40.058;18.328;2023-02-26T11:23:01;107.63;;;30.27;;
52025;SDS011;38041;40.058;18.328;2023-02-26T11:25:30;107.53;;;31.90;;
52025;SDS011;38041;40.058;18.328;2023-02-26T11:28:03;106.23;;;38.00;;
52025;SDS011;38041;40.058;18.328;2023-02-26T11:30:33;97.90;;;30.30;;
52025;SDS011;38041;40.058;18.328;2023-02-26T11:33:19;108.80;;;38.93;;
52025;SDS011;38041;40.058;18.328;2023-02-26T11:35:48;92.03;;;21.20;;
52025;SDS011;38041;40.058;18.328;2023-02-26T11:38:20;81.33;;;21.30;;
52025;SDS011;38041;40.058;18.328;2023-02-26T11:40:51;86.63;;;29.13;;
52025;SDS011;38041;40.058;18.328;2023-02-26T11:43:19;79.93;;;23.23;;
52025;SDS011;38041;40.058;18.328;2023-02-26T11:45:49;90.50;;;21.33;;
52025;SDS011;38041;40.058;18.328;2023-02-26T11:48:20;88.33;;;16.37;;
52025;SDS011;38041;40.058;18.328;2023-02-26T11:50:51;86.13;;;18.90;;
52025;SDS011;38041;40.058;18.328;2023-02-26T11:53:24;77.43;;;17.77;;
52025;SDS011;38041;40.058;18.328;2023-02-26T11:55:57;76.70;;;14.67;;
52025;SDS011;38041;40.058;18.328;2023-02-26T11:58:26;88.47;;;19.20;;
52025;SDS011;38041;40.058;18.328;2023-02-26T12:00:56;92.77;;;20.53;;
52025;SDS011;38041;40.058;18.328;2023-02-26T12:03:30;80.53;;;17.30;;
52025;SDS011;38041;40.058;18.328;2023-02-26T12:05:59;73.00;;;16.40;;
52025;SDS011;38041;40.058;18.328;2023-02-26T12:08:33;80.03;;;15.70;;
52025;SDS011;38041;40.058;18.328;2023-02-26T12:11:18;80.00;;;14.63;;
52025;SDS011;38041;40.058;18.328;2023-02-26T12:19:15;66.27;;;15.40;;
52025;SDS011;38041;40.058;18.328;2023-02-26T12:27:09;83.20;;;19.47;;
52025;SDS011;38041;40.058;18.328;2023-02-26T12:38:03;102.37;;;20.37;;
52025;SDS011;38041;40.058;18.328;2023-02-26T12:42:57;97.07;;;17.77;;
52025;SDS011;38041;40.058;18.328;2023-02-26T12:45:31;88.73;;;21.83;;
52025;SDS011;38041;40.058;18.328;2023-02-26T13:01:17;84.23;;;14.97;;
52025;SDS011;38041;40.058;18.328;2023-02-26T13:03:42;100.07;;;23.97;;
52025;SDS011;38041;40.058;18.328;2023-02-26T13:08:48;90.47;;;20.07;;
52025;SDS011;38041;40.058;18.328;2023-02-26T13:11:27;93.57;;;19.77;;
52025;SDS011;38041;40.058;18.328;2023-02-26T13:14:01;104.45;;;18.25;;
52025;SDS011;38041;40.058;18.328;2023-02-26T13:21:52;84.07;;;18.30;;
52025;SDS011;38041;40.058;18.328;2023-02-26T13:24:38;108.87;;;29.10;;
52025;SDS011;38041;40.058;18.328;2023-02-26T13:27:07;101.13;;;23.23;;
52025;SDS011;38041;40.058;18.328;2023-02-26T13:29:46;108.97;;;33.80;;
52025;SDS011;38041;40.058;18.328;2023-02-26T13:32:22;117.57;;;20.80;;
52025;SDS011;38041;40.058;18.328;2023-02-26T13:35:26;111.80;;;28.17;;
52025;SDS011;38041;40.058;18.328;2023-02-26T13:37:46;108.20;;;17.90;;
52025;SDS011;38041;40.058;18.328;2023-02-26T13:43:10;110.00;;;19.20;;
52025;SDS011;38041;40.058;18.328;2023-02-26T13:55:53;100.57;;;25.40;;
52025;SDS011;38041;40.058;18.328;2023-02-26T14:00:57;89.37;;;26.63;;
52025;SDS011;38041;40.058;18.328;2023-02-26T14:03:35;71.93;;;15.17;;
52025;SDS011;38041;40.058;18.328;2023-02-26T14:16:32;83.87;;;15.93;;
52025;SDS011;38041;40.058;18.328;2023-02-26T14:19:04;73.63;;;13.37;;
52025;SDS011;38041;40.058;18.328;2023-02-26T14:21:36;81.90;;;18.07;;
52025;SDS011;38041;40.058;18.328;2023-02-26T14:26:35;89.13;;;17.87;;
52025;SDS011;38041;40.058;18.328;2023-02-26T14:34:15;127.27;;;18.63;;
52025;SDS011;38041;40.058;18.328;2023-02-26T14:36:48;131.87;;;18.17;;
52025;SDS011;38041;40.058;18.328;2023-02-26T14:41:48;110.20;;;20.00;;
52025;SDS011;38041;40.058;18.328;2023-02-26T14:44:21;127.13;;;20.33;;
52025;SDS011;38041;40.058;18.328;2023-02-26T14:46:49;130.33;;;21.90;;
52025;SDS011;38041;40.058;18.328;2023-02-26T14:49:29;132.67;;;23.13;;
52025;SDS011;38041;40.058;18.328;2023-02-26T14:54:33;111.83;;;20.10;;
52025;SDS011;38041;40.058;18.328;2023-02-26T15:02:31;131.80;;;24.37;;
52025;SDS011;38041;40.058;18.328;2023-02-26T15:10:34;114.17;;;20.20;;
52025;SDS011;38041;40.058;18.328;2023-02-26T15:23:40;86.00;;;17.97;;
52025;SDS011;38041;40.058;18.328;2023-02-26T15:26:12;81.53;;;19.83;;
52025;SDS011;38041;40.058;18.328;2023-02-26T15:28:42;82.70;;;22.70;;
52025;SDS011;38041;40.058;18.328;2023-02-26T15:31:11;70.57;;;19.47;;
52025;SDS011;38041;40.058;18.328;2023-02-26T15:33:39;54.17;;;16.93;;
52025;SDS011;38041;40.058;18.328;2023-02-26T15:36:10;72.17;;;33.13;;
52025;SDS011;38041;40.058;18.328;2023-02-26T15:38:43;33.83;;;11.27;;
52025;SDS011;38041;40.058;18.328;2023-02-26T15:41:11;43.83;;;12.90;;
52025;SDS011;38041;40.058;18.328;2023-02-26T15:43:40;35.50;;;13.93;;
52025;SDS011;38041;40.058;18.328;2023-02-26T15:46:10;25.67;;;7.60;;
52025;SDS011;38041;40.058;18.328;2023-02-26T15:48:38;27.00;;;8.70;;
52025;SDS011;38041;40.058;18.328;2023-02-26T15:51:11;18.43;;;5.03;;
52025;SDS011;38041;40.058;18.328;2023-02-26T15:53:43;23.57;;;4.43;;
52025;SDS011;38041;40.058;18.328;2023-02-26T15:56:16;21.20;;;7.90;;
52025;SDS011;38041;40.058;18.328;2023-02-26T15:58:46;22.20;;;2.97;;
52025;SDS011;38041;40.058;18.328;2023-02-26T16:01:16;10.20;;;1.97;;
52025;SDS011;38041;40.058;18.328;2023-02-26T16:03:45;21.73;;;4.80;;
52025;SDS011;38041;40.058;18.328;2023-02-26T16:06:22;19.90;;;3.23;;
52025;SDS011;38041;40.058;18.328;2023-02-26T16:08:50;20.73;;;4.27;;
52025;SDS011;38041;40.058;18.328;2023-02-26T16:11:18;21.60;;;5.03;;
52025;SDS011;38041;40.058;18.328;2023-02-26T16:13:48;34.13;;;11.30;;
52025;SDS011;38041;40.058;18.328;2023-02-26T16:16:24;21.53;;;4.40;;
52025;SDS011;38041;40.058;18.328;2023-02-26T16:18:53;28.20;;;8.17;;
52025;SDS011;38041;40.058;18.328;2023-02-26T16:21:22;19.37;;;6.70;;
52025;SDS011;38041;40.058;18.328;2023-02-26T16:23:52;48.17;;;23.90;;
52025;SDS011;38041;40.058;18.328;2023-02-26T16:26:24;37.50;;;10.30;;
52025;SDS011;38041;40.058;18.328;2023-02-26T16:28:58;23.17;;;6.80;;
52025;SDS011;38041;40.058;18.328;2023-02-26T16:31:26;39.87;;;5.33;;
52025;SDS011;38041;40.058;18.328;2023-02-26T16:33:58;31.30;;;6.23;;
52025;SDS011;38041;40.058;18.328;2023-02-26T16:36:31;43.23;;;15.23;;
52025;SDS011;38041;40.058;18.328;2023-02-26T16:41:34;23.93;;;7.63;;
52025;SDS011;38041;40.058;18.328;2023-02-26T16:44:03;26.03;;;10.77;;
52025;SDS011;38041;40.058;18.328;2023-02-26T16:46:41;35.97;;;13.33;;
52025;SDS011;38041;40.058;18.328;2023-02-26T16:49:13;50.30;;;18.80;;
52025;SDS011;38041;40.058;18.328;2023-02-26T16:51:43;40.17;;;13.17;;
52025;SDS011;38041;40.058;18.328;2023-02-26T16:54:16;24.30;;;7.00;;
52025;SDS011;38041;40.058;18.328;2023-02-26T16:56:46;33.78;;;10.82;;
52025;SDS011;38041;40.058;18.328;2023-02-26T16:59:17;34.63;;;13.50;;
52025;SDS011;38041;40.058;18.328;2023-02-26T17:01:54;22.17;;;7.23;;
52025;SDS011;38041;40.058;18.328;2023-02-26T17:04:24;23.67;;;9.73;;
52025;SDS011;38041;40.058;18.328;2023-02-26T17:06:54;47.13;;;18.63;;
52025;SDS011;38041;40.058;18.328;2023-02-26T17:12:13;36.63;;;14.00;;
52025;SDS011;38041;40.058;18.328;2023-02-26T17:14:42;26.03;;;7.70;;
52025;SDS011;38041;40.058;18.328;2023-02-26T17:17:10;32.00;;;13.83;;
52025;SDS011;38041;40.058;18.328;2023-02-26T17:19:38;23.57;;;7.80;;
52025;SDS011;38041;40.058;18.328;2023-02-26T17:22:07;22.57;;;7.37;;
52025;SDS011;38041;40.058;18.328;2023-02-26T17:24:36;34.17;;;12.43;;
52025;SDS011;38041;40.058;18.328;2023-02-26T17:27:13;22.90;;;6.23;;
52025;SDS011;38041;40.058;18.328;2023-02-26T17:29:43;13.90;;;3.03;;
52025;SDS011;38041;40.058;18.328;2023-02-26T17:32:13;26.47;;;11.17;;